Bat Cave, North Carolina
Current Conditions -  °F | °C
As of 5:54 AM on Friday 19 Dec 2014 (Local Time) from KAVL Reporting Station
Clear Clear  
Wind Chill: 26°   Ceiling: Unl
Heat Index: 35°   Visibility: 10mi
Dew Point: 25°   Wind: 13mph
Humidity: 67%   Direction: 330°NNW
Pressure: 30.11"   Gusts: NA
Location:  35.45°N, 82.29°W
Report Text: KAVL 191054Z AUTO 33011KT 10SM CLR 02/M04 A3011 RMK AO2 SLP197 T00171039
Loading
Personal Weather Stations






























Interactive Weather Map New forecast layout! Learn more

10-Day Weather Forecast

Advertisements
Track Severe Weather on mobile